Time;durP1;ratioP1;P1;durP2;ratioP2;P2;SDS_P1;SDS_P2;PMS_P1;PMS_P2;Temp;Humidity;BMP_temperature;BMP_pressure;BME280_temperature;BME280_humidity;BME280_pressure;Samples;Min_cycle;Max_cycle;Signal;HPM_P1;HPM_P2
2023/07/13 00:01:04;;;;;;;2.13;2.00;;;25.50;45.20;;;;;;20451;6867;281981;-76
2023/07/13 00:03:35;;;;;;;2.20;1.90;;;25.60;44.30;;;;;;20490;6851;308306;-76
2023/07/13 00:05:58;;;;;;;2.00;1.90;;;25.70;44.00;;;;;;20693;6851;117963;-76
2023/07/13 00:08:26;;;;;;;1.90;1.80;;;25.40;44.40;;;;;;20700;6851;118365;-76
2023/07/13 00:10:54;;;;;;;2.55;2.17;;;25.00;45.00;;;;;;20413;6866;335076;-76
2023/07/13 00:13:17;;;;;;;2.13;1.90;;;25.00;44.50;;;;;;20426;6866;309246;-76
2023/07/13 00:15:43;;;;;;;3.70;1.90;;;25.20;44.20;;;;;;20481;6852;296957;-76
2023/07/13 00:18:08;;;;;;;2.60;2.10;;;25.30;43.80;;;;;;20475;6850;312799;-76
2023/07/13 00:20:34;;;;;;;2.03;1.93;;;25.40;43.50;;;;;;20687;6847;117826;-76
2023/07/13 00:23:00;;;;;;;3.03;1.97;;;25.00;44.10;;;;;;20669;6852;118622;-76
2023/07/13 00:25:27;;;;;;;1.80;1.70;;;24.60;44.90;;;;;;20507;6846;312158;-76
2023/07/13 00:27:51;;;;;;;2.10;2.00;;;24.70;45.30;;;;;;20493;6845;310431;-75
2023/07/13 00:30:17;;;;;;;2.20;2.00;;;25.00;44.40;;;;;;20514;6846;308063;-76
2023/07/13 00:32:42;;;;;;;2.00;1.90;;;25.00;44.40;;;;;;20482;6846;278535;-76
2023/07/13 00:35:08;;;;;;;2.07;1.97;;;25.20;44.00;;;;;;20497;6846;309192;-76
2023/07/13 00:37:36;;;;;;;2.00;1.90;;;25.00;44.20;;;;;;20708;6846;117621;-76
2023/07/13 00:40:05;;;;;;;2.10;1.97;;;25.00;44.20;;;;;;20710;6844;117419;-76
2023/07/13 00:42:31;;;;;;;2.63;2.00;;;24.60;44.80;;;;;;20437;6844;311344;-75
2023/07/13 00:45:07;;;;;;;1.97;1.87;;;24.60;44.70;;;;;;20502;6846;290085;-76
2023/07/13 00:47:32;;;;;;;1.90;1.80;;;24.80;44.30;;;;;;19429;7187;326133;-76
2023/07/13 00:49:59;;;;;;;2.15;1.90;;;25.00;43.70;;;;;;20550;6849;117289;-76
2023/07/13 00:52:25;;;;;;;2.33;1.80;;;24.80;44.10;;;;;;20564;6822;282303;-76
2023/07/13 00:54:50;;;;;;;1.90;1.80;;;24.70;43.80;;;;;;20530;6827;300117;-76
2023/07/13 00:57:16;;;;;;;2.10;1.90;;;24.90;43.80;;;;;;20551;6828;278265;-76
2023/07/13 00:59:43;;;;;;;1.70;1.60;;;25.00;43.60;;;;;;20630;6866;121308;-76
2023/07/13 01:02:09;;;;;;;2.40;1.80;;;24.70;43.90;;;;;;20468;6851;308618;-78
2023/07/13 01:04:35;;;;;;;1.90;1.70;;;24.80;44.70;;;;;;20460;6851;308367;-76
2023/07/13 01:07:00;;;;;;;1.87;1.77;;;24.80;43.90;;;;;;20539;6835;277892;-80
2023/07/13 01:09:27;;;;;;;2.07;1.90;;;24.90;43.30;;;;;;20432;6867;309527;-76
2023/07/13 01:11:52;;;;;;;1.80;1.70;;;24.90;43.30;;;;;;20702;6847;123273;-76
2023/07/13 01:14:18;;;;;;;3.50;1.50;;;24.20;44.20;;;;;;20642;6867;117205;-78
2023/07/13 01:16:44;;;;;;;1.50;1.40;;;24.20;44.20;;;;;;20686;6847;118632;-77
2023/07/13 01:19:16;;;;;;;1.60;1.50;;;23.90;45.40;;;;;;20431;6866;329899;-77
2023/07/13 01:21:43;;;;;;;3.60;1.70;;;24.30;43.30;;;;;;20394;6861;309162;-78
2023/07/13 01:24:08;;;;;;;1.50;1.40;;;24.40;42.90;;;;;;20681;6858;120408;-76
2023/07/13 01:26:34;;;;;;;2.37;1.33;;;24.20;43.20;;;;;;20650;6852;117587;-76
2023/07/13 01:28:59;;;;;;;1.50;1.50;;;24.00;43.80;;;;;;20672;6857;118899;-76
2023/07/13 01:31:25;;;;;;;1.65;1.60;;;23.80;44.20;;;;;;20471;6862;309528;-77
2023/07/13 01:33:50;;;;;;;1.75;1.65;;;24.00;43.60;;;;;;20556;6828;278270;-76
2023/07/13 01:36:16;;;;;;;2.37;1.77;;;24.30;42.70;;;;;;20451;6861;314580;-76
2023/07/13 01:38:41;;;;;;;3.00;1.67;;;24.60;42.40;;;;;;20489;6842;300780;-76
2023/07/13 01:41:07;;;;;;;3.97;1.30;;;24.80;42.20;;;;;;20721;6842;118487;-77
2023/07/13 01:43:33;;;;;;;1.40;1.30;;;24.60;42.00;;;;;;20505;6842;307884;-77
2023/07/13 01:45:58;;;;;;;2.27;1.63;;;24.60;41.80;;;;;;20510;6842;277969;-77
2023/07/13 01:48:26;;;;;;;2.62;1.50;;;24.80;41.80;;;;;;20511;6842;278008;-76
2023/07/13 01:50:51;;;;;;;1.70;1.30;;;24.80;41.10;;;;;;20706;6842;117458;-77
2023/07/13 01:53:17;;;;;;;1.50;1.40;;;24.60;41.70;;;;;;20518;6842;307858;-76
2023/07/13 01:55:42;;;;;;;2.10;1.55;;;24.60;41.40;;;;;;20460;6862;310331;-76
2023/07/13 01:58:08;;;;;;;1.40;1.30;;;24.70;41.00;;;;;;20737;6841;122870;-76
2023/07/13 02:00:34;;;;;;;2.27;1.33;;;24.40;41.70;;;;;;20698;6847;117849;-76
2023/07/13 02:02:59;;;;;;;2.07;1.97;;;24.00;42.30;;;;;;20707;6852;118441;-76
2023/07/13 02:05:26;;;;;;;1.70;1.57;;;23.70;42.80;;;;;;20585;6821;308890;-76
2023/07/13 02:07:52;;;;;;;2.57;1.60;;;23.80;42.20;;;;;;20783;6821;117085;-78
2023/07/13 02:10:17;;;;;;;1.80;1.70;;;23.70;42.50;;;;;;20579;6821;278024;-76
2023/07/13 02:12:43;;;;;;;1.95;1.55;;;23.80;42.00;;;;;;20554;6821;337786;-77
2023/07/13 02:15:08;;;;;;;4.00;1.70;;;24.00;41.90;;;;;;20574;6821;310758;-76
2023/07/13 02:17:34;;;;;;;2.53;1.73;;;24.20;41.20;;;;;;20792;6821;119214;-77
2023/07/13 02:19:59;;;;;;;1.23;1.13;;;24.00;41.70;;;;;;20793;6821;117199;-76
2023/07/13 02:22:25;;;;;;;2.35;1.87;;;23.60;42.40;;;;;;20577;6821;279883;-77
2023/07/13 02:24:51;;;;;;;3.23;1.57;;;23.70;42.30;;;;;;20770;6821;122963;-77
2023/07/13 02:27:16;;;;;;;2.33;1.63;;;23.50;42.60;;;;;;20788;6821;117103;-76
2023/07/13 02:29:42;;;;;;;1.30;1.20;;;23.00;43.70;;;;;;20786;6821;119756;-76
2023/07/13 02:32:09;;;;;;;1.80;1.50;;;22.90;43.50;;;;;;20569;6821;310322;-77
2023/07/13 02:34:35;;;;;;;2.43;1.60;;;23.10;43.50;;;;;;20553;6821;308043;-76
2023/07/13 02:37:00;;;;;;;2.35;1.40;;;23.50;43.00;;;;;;20790;6821;117311;-77
2023/07/13 02:39:26;;;;;;;1.50;1.40;;;23.30;43.20;;;;;;20786;6821;117733;-77
2023/07/13 02:41:51;;;;;;;2.17;1.50;;;23.00;43.60;;;;;;20781;6821;117480;-76
2023/07/13 02:44:18;;;;;;;1.60;1.50;;;22.50;44.40;;;;;;20773;6821;117135;-76
2023/07/13 02:46:43;;;;;;;1.90;1.53;;;22.50;44.40;;;;;;20773;6819;117633;-76
2023/07/13 02:49:09;;;;;;;3.53;1.43;;;22.30;44.70;;;;;;20773;6820;118234;-76
2023/07/13 02:51:34;;;;;;;2.53;1.75;;;22.20;44.90;;;;;;20507;6820;297865;-76
2023/07/13 02:54:00;;;;;;;3.30;1.57;;;22.50;44.50;;;;;;20783;6820;117052;-77
2023/07/13 02:56:26;;;;;;;2.65;1.60;;;22.50;44.50;;;;;;20525;6821;278819;-76
2023/07/13 02:58:52;;;;;;;2.30;1.60;;;22.60;44.10;;;;;;20750;6821;119100;-77
2023/07/13 03:01:18;;;;;;;1.47;1.43;;;22.30;44.50;;;;;;20786;6821;119976;-77
2023/07/13 03:03:46;;;;;;;2.45;1.50;;;22.30;44.80;;;;;;20575;6821;294053;-76
2023/07/13 03:06:12;;;;;;;2.70;1.70;;;22.40;45.20;;;;;;20786;6820;117191;-76
2023/07/13 03:08:39;;;;;;;1.60;1.50;;;22.30;45.30;;;;;;20770;6821;122100;-76
2023/07/13 03:11:04;;;;;;;2.93;1.60;;;22.20;45.80;;;;;;20797;6821;123953;-76
2023/07/13 03:13:30;;;;;;;3.03;1.53;;;22.00;46.20;;;;;;20783;6821;118203;-76
2023/07/13 03:15:56;;;;;;;1.60;1.50;;;21.90;46.40;;;;;;20750;6821;123806;-77
2023/07/13 03:18:21;;;;;;;2.77;1.60;;;21.80;46.40;;;;;;20784;6821;119746;-76
2023/07/13 03:20:47;;;;;;;1.60;1.50;;;21.70;46.50;;;;;;20569;6821;307003;-76
2023/07/13 03:23:12;;;;;;;3.30;1.70;;;22.10;46.00;;;;;;20462;6853;322182;-76
2023/07/13 03:25:39;;;;;;;3.50;1.58;;;22.60;45.30;;;;;;20726;6842;120158;-76
2023/07/13 03:28:05;;;;;;;1.55;1.45;;;22.50;45.20;;;;;;20575;6821;282449;-77
2023/07/13 03:30:30;;;;;;;2.37;1.60;;;22.80;44.60;;;;;;20566;6821;307125;-79
2023/07/13 03:32:56;;;;;;;2.22;1.65;;;23.30;43.20;;;;;;20566;6821;338411;-76
2023/07/13 03:35:22;;;;;;;2.58;1.70;;;23.30;43.20;;;;;;20570;6821;282496;-78
2023/07/13 03:37:48;;;;;;;3.47;1.70;;;23.60;42.80;;;;;;20570;6821;278383;-77
2023/07/13 03:40:14;;;;;;;3.00;1.90;;;23.60;42.80;;;;;;20567;6821;308001;-77
2023/07/13 03:42:39;;;;;;;2.20;1.70;;;23.70;43.00;;;;;;20755;6821;117943;-76
2023/07/13 03:45:05;;;;;;;3.22;2.10;;;23.40;43.50;;;;;;20788;6821;117649;-77
2023/07/13 03:47:31;;;;;;;2.33;1.53;;;23.00;44.20;;;;;;20788;6821;120195;-74
2023/07/13 03:49:56;;;;;;;2.40;1.60;;;22.70;45.00;;;;;;20792;6821;119239;-77
2023/07/13 03:52:23;;;;;;;2.07;1.50;;;22.40;45.50;;;;;;20789;6821;120137;-76
2023/07/13 03:54:49;;;;;;;2.00;1.90;;;22.20;45.90;;;;;;20554;6821;321189;-77
2023/07/13 03:57:14;;;;;;;1.80;1.70;;;22.40;46.20;;;;;;20796;6819;119245;-76
2023/07/13 03:59:40;;;;;;;1.75;1.65;;;22.30;46.10;;;;;;20586;6820;308287;-76
2023/07/13 04:02:05;;;;;;;4.13;1.77;;;22.50;45.80;;;;;;20586;6820;310027;-75
2023/07/13 04:04:31;;;;;;;2.37;1.50;;;22.80;45.30;;;;;;20776;6820;117432;-74
2023/07/13 04:06:58;;;;;;;3.17;1.60;;;22.60;45.40;;;;;;20796;6820;117321;-74
2023/07/13 04:09:22;;;;;;;1.60;1.50;;;22.40;45.70;;;;;;20782;6821;117179;-74
2023/07/13 04:11:49;;;;;;;1.40;1.30;;;21.90;46.60;;;;;;20772;6821;117619;-74
2023/07/13 04:14:15;;;;;;;2.58;1.60;;;21.90;46.00;;;;;;20579;6821;337100;-74
2023/07/13 04:16:41;;;;;;;6.63;1.50;;;22.20;44.50;;;;;;20768;6821;117841;-75
2023/07/13 04:19:06;;;;;;;3.60;1.80;;;22.10;44.60;;;;;;20569;6821;278706;-74
2023/07/13 04:21:32;;;;;;;1.50;1.40;;;22.40;44.30;;;;;;20568;6821;308443;-75
2023/07/13 04:23:57;;;;;;;1.83;1.63;;;22.70;43.90;;;;;;20787;6821;117716;-75
2023/07/13 04:26:23;;;;;;;2.30;1.50;;;22.60;44.10;;;;;;20787;6821;117003;-75
2023/07/13 04:28:50;;;;;;;2.60;1.70;;;22.30;44.40;;;;;;20563;6821;278583;-75
2023/07/13 04:31:16;;;;;;;1.73;1.60;;;22.50;43.60;;;;;;20578;6821;336989;-74
2023/07/13 04:33:42;;;;;;;1.80;1.70;;;22.80;42.70;;;;;;20830;6821;118770;-75
2023/07/13 04:36:09;;;;;;;2.35;1.60;;;22.70;43.30;;;;;;20498;6853;279093;-72
2023/07/13 04:38:32;;;;;;;2.77;1.53;;;22.70;43.20;;;;;;20705;6842;117314;-74
2023/07/13 04:40:58;;;;;;;1.57;1.47;;;22.60;43.50;;;;;;20799;6821;121003;-73
2023/07/13 04:43:24;;;;;;;4.80;1.80;;;22.50;43.10;;;;;;20568;6821;279952;-72
2023/07/13 04:45:50;;;;;;;6.63;1.90;;;22.50;43.10;;;;;;20679;6853;120185;-71
2023/07/13 04:48:16;;;;;;;2.17;1.43;;;22.50;43.40;;;;;;20712;6842;117309;-72
2023/07/13 04:50:41;;;;;;;3.27;1.70;;;22.30;43.80;;;;;;20551;6821;308043;-72
2023/07/13 04:53:07;;;;;;;3.37;1.70;;;22.50;43.10;;;;;;20566;6821;307508;-72
2023/07/13 04:55:33;;;;;;;3.20;1.50;;;23.20;42.00;;;;;;20589;6821;283464;-73
2023/07/13 04:57:59;;;;;;;2.25;1.70;;;23.10;41.90;;;;;;20573;6821;344671;-73
2023/07/13 05:00:25;;;;;;;2.10;1.60;;;23.50;42.00;;;;;;20583;6821;279343;-77
2023/07/13 05:02:51;;;;;;;2.97;1.47;;;23.50;41.80;;;;;;20773;6821;118999;-75
2023/07/13 05:05:16;;;;;;;1.50;1.20;;;23.30;42.30;;;;;;20784;6821;120511;-75
2023/07/13 05:07:42;;;;;;;2.42;1.60;;;23.00;43.10;;;;;;20562;6821;308329;-71
2023/07/13 05:10:07;;;;;;;3.93;1.37;;;23.20;43.20;;;;;;20785;6819;117866;-72
2023/07/13 05:12:33;;;;;;;1.47;1.30;;;23.10;43.10;;;;;;20765;6820;117845;-77
2023/07/13 05:14:59;;;;;;;1.40;1.30;;;22.90;43.40;;;;;;20783;6820;120678;-74
2023/07/13 05:17:24;;;;;;;2.45;1.60;;;22.80;43.70;;;;;;20572;6820;278376;-76
2023/07/13 05:19:50;;;;;;;2.87;1.60;;;23.10;42.70;;;;;;20572;6821;307230;-74
2023/07/13 05:22:16;;;;;;;5.47;2.33;;;23.90;40.80;;;;;;20544;6821;310822;-73
2023/07/13 05:24:42;;;;;;;2.00;1.80;;;23.90;41.40;;;;;;20511;6821;306313;-72
2023/07/13 05:27:07;;;;;;;3.53;1.70;;;24.20;41.40;;;;;;20524;6821;277941;-71
2023/07/13 05:29:33;;;;;;;4.63;1.70;;;24.40;41.20;;;;;;20514;6821;329597;-73
2023/07/13 05:32:00;;;;;;;3.83;1.67;;;24.50;40.80;;;;;;20512;6821;279389;-74
2023/07/13 05:34:26;;;;;;;3.57;1.80;;;24.60;40.70;;;;;;20511;6821;308661;-74
2023/07/13 05:36:51;;;;;;;2.22;1.40;;;24.80;39.70;;;;;;20496;6821;322250;-75
2023/07/13 05:39:16;;;;;;;1.67;1.33;;;24.90;39.80;;;;;;20791;6821;117541;-73
2023/07/13 05:41:42;;;;;;;2.03;1.40;;;24.60;40.30;;;;;;20583;6821;278292;-75
2023/07/13 05:44:07;;;;;;;1.90;1.50;;;24.60;40.20;;;;;;20795;6821;117517;-80
2023/07/13 05:46:33;;;;;;;2.58;1.50;;;24.50;41.30;;;;;;20773;6821;117912;-79
2023/07/13 05:48:58;;;;;;;1.63;1.43;;;24.20;42.60;;;;;;20793;6821;117307;-76
2023/07/13 05:51:24;;;;;;;4.27;1.33;;;23.90;43.70;;;;;;20803;6821;117595;-83
2023/07/13 05:53:49;;;;;;;3.80;1.87;;;23.70;44.70;;;;;;20601;6821;278407;-80
2023/07/13 05:56:15;;;;;;;3.50;1.70;;;23.90;45.90;;;;;;20799;6821;120860;-79
2023/07/13 05:58:41;;;;;;;3.20;1.80;;;23.80;45.60;;;;;;20783;6821;117669;-76
2023/07/13 06:01:09;;;;;;;2.80;1.60;;;23.60;45.70;;;;;;20799;6821;124114;-77
2023/07/13 06:03:35;;;;;;;2.50;1.80;;;23.50;45.70;;;;;;20582;6821;279166;-76
2023/07/13 06:06:01;;;;;;;1.98;1.77;;;24.00;44.60;;;;;;20571;6821;307119;-78
2023/07/13 06:08:28;;;;;;;2.97;1.77;;;24.00;44.70;;;;;;20794;6821;117103;-77
2023/07/13 06:10:53;;;;;;;2.77;1.60;;;24.10;44.70;;;;;;20560;6821;307520;-77
2023/07/13 06:13:19;;;;;;;4.35;1.80;;;24.30;44.10;;;;;;20586;6821;307128;-76
2023/07/13 06:15:48;;;;;;;5.27;1.60;;;24.60;43.60;;;;;;20797;6821;117149;-77
2023/07/13 06:18:14;;;;;;;2.63;1.50;;;24.70;44.00;;;;;;20772;6821;120119;-75
2023/07/13 06:20:40;;;;;;;6.57;1.93;;;24.60;44.40;;;;;;20777;6819;122897;-77
2023/07/13 06:23:06;;;;;;;3.53;1.75;;;24.50;44.60;;;;;;20575;6820;340886;-77
2023/07/13 06:25:32;;;;;;;3.37;1.50;;;24.80;43.30;;;;;;20799;6820;117454;-76
2023/07/13 06:27:58;;;;;;;2.33;1.83;;;25.00;43.60;;;;;;20583;6820;307703;-76
2023/07/13 06:30:23;;;;;;;3.50;2.00;;;25.40;43.20;;;;;;20804;6820;117706;-77
2023/07/13 06:32:49;;;;;;;2.93;1.60;;;25.70;43.70;;;;;;20788;6821;119948;-76
2023/07/13 06:35:16;;;;;;;2.22;1.87;;;26.00;43.90;;;;;;20568;6821;278012;-76
2023/07/13 06:37:41;;;;;;;2.27;1.77;;;26.70;41.70;;;;;;20572;6821;310323;-75
2023/07/13 06:40:07;;;;;;;2.43;1.60;;;27.60;40.10;;;;;;20572;6821;318577;-76
2023/07/13 06:42:33;;;;;;;3.43;1.83;;;28.40;39.00;;;;;;20549;6821;307816;-76
2023/07/13 06:44:58;;;;;;;3.35;1.55;;;29.00;37.40;;;;;;20546;6821;313631;-75
2023/07/13 06:47:25;;;;;;;3.10;1.87;;;29.60;35.50;;;;;;20532;6821;308870;-76
2023/07/13 06:49:52;;;;;;;2.43;1.70;;;30.30;34.60;;;;;;20569;6821;307510;-75
2023/07/13 06:52:19;;;;;;;3.73;1.77;;;30.30;34.50;;;;;;20790;6821;117708;-76
2023/07/13 06:54:44;;;;;;;3.65;1.60;;;30.30;35.10;;;;;;20549;6821;337035;-76
2023/07/13 06:57:10;;;;;;;2.07;1.50;;;30.60;32.60;;;;;;20782;6821;117636;-76
2023/07/13 06:59:35;;;;;;;1.60;1.50;;;30.60;33.20;;;;;;20782;6821;117237;-76
2023/07/13 07:02:01;;;;;;;4.50;1.90;;;30.40;33.60;;;;;;20562;6821;312497;-76
2023/07/13 07:04:26;;;;;;;5.60;1.80;;;30.80;31.50;;;;;;20782;6821;116594;-75
2023/07/13 07:06:53;;;;;;;2.50;1.70;;;30.90;33.10;;;;;;20757;6821;118185;-77
2023/07/13 07:09:18;;;;;;;3.80;1.80;;;30.90;32.80;;;;;;20548;6821;308316;-75
2023/07/13 07:11:44;;;;;;;3.97;1.70;;;31.20;30.80;;;;;;20764;6821;122609;-74
2023/07/13 07:14:09;;;;;;;2.57;1.80;;;31.30;31.50;;;;;;20759;6821;118573;-75
2023/07/13 07:16:35;;;;;;;3.10;1.60;;;31.20;31.60;;;;;;20744;6821;118216;-76
2023/07/13 07:19:00;;;;;;;3.70;1.83;;;31.10;31.40;;;;;;20755;6821;117364;-75
2023/07/13 07:21:27;;;;;;;2.23;1.60;;;31.10;29.30;;;;;;20551;6821;305572;-74
2023/07/13 07:23:54;;;;;;;1.97;1.60;;;31.20;29.40;;;;;;20576;6821;278820;-74
2023/07/13 07:26:19;;;;;;;2.67;1.75;;;31.40;29.00;;;;;;20568;6821;312181;-75
2023/07/13 07:28:45;;;;;;;3.33;1.77;;;31.70;29.20;;;;;;20545;6821;277989;-75
2023/07/13 07:31:10;;;;;;;2.97;1.67;;;31.80;28.40;;;;;;20790;6819;117367;-74
2023/07/13 07:33:36;;;;;;;2.17;1.63;;;31.60;29.00;;;;;;20571;6820;311434;-74
2023/07/13 07:36:01;;;;;;;3.60;2.03;;;31.50;29.20;;;;;;20793;6820;118648;-75
2023/07/13 07:38:27;;;;;;;2.40;1.50;;;31.30;29.50;;;;;;20564;6820;278860;-75
2023/07/13 07:40:53;;;;;;;2.23;1.30;;;31.30;29.50;;;;;;20538;6820;312154;-74
2023/07/13 07:43:19;;;;;;;2.37;1.60;;;31.30;29.50;;;;;;20773;6821;118058;-74
2023/07/13 07:45:45;;;;;;;3.63;1.73;;;30.70;29.50;;;;;;20773;6821;117131;-74
2023/07/13 07:48:11;;;;;;;2.70;1.37;;;30.70;29.50;;;;;;20563;6821;278159;-74
2023/07/13 07:50:38;;;;;;;4.33;1.90;;;30.90;28.30;;;;;;20563;6821;288079;-75
2023/07/13 07:53:02;;;;;;;2.53;1.77;;;30.90;28.30;;;;;;20573;6821;307911;-74
2023/07/13 07:55:28;;;;;;;1.70;1.60;;;31.00;28.60;;;;;;20587;6821;283707;-75
2023/07/13 07:57:54;;;;;;;2.00;1.62;;;31.10;28.50;;;;;;20795;6821;117525;-74
2023/07/13 08:00:19;;;;;;;3.25;1.50;;;30.90;29.10;;;;;;20569;6821;308020;-76
2023/07/13 08:02:45;;;;;;;2.80;1.57;;;31.00;29.20;;;;;;20753;6821;131541;-75
2023/07/13 08:05:10;;;;;;;3.97;1.60;;;30.90;29.50;;;;;;20768;6821;120281;-74
2023/07/13 08:07:36;;;;;;;2.77;1.60;;;30.70;29.80;;;;;;20780;6821;118941;-75
2023/07/13 08:10:01;;;;;;;3.07;1.17;;;30.50;30.00;;;;;;20765;6821;117013;-75
2023/07/13 08:12:27;;;;;;;2.40;1.90;;;30.40;30.00;;;;;;20769;6821;117257;-75
2023/07/13 08:14:57;;;;;;;2.30;1.50;;;30.30;29.90;;;;;;20548;6821;304121;-75
2023/07/13 08:17:21;;;;;;;1.57;1.37;;;30.50;28.10;;;;;;20672;6853;121828;-75
2023/07/13 08:19:46;;;;;;;2.03;1.23;;;30.60;28.70;;;;;;20723;6842;117697;-75
2023/07/13 08:22:12;;;;;;;2.17;1.58;;;30.50;29.30;;;;;;20570;6821;337477;-75
2023/07/13 08:24:38;;;;;;;2.72;1.30;;;30.70;27.90;;;;;;20775;6821;127759;-75
2023/07/13 08:27:03;;;;;;;1.87;1.30;;;30.60;28.40;;;;;;20574;6821;279260;-74
2023/07/13 08:29:31;;;;;;;1.77;1.40;;;30.80;28.40;;;;;;20574;6821;309969;-74
2023/07/13 08:31:54;;;;;;;2.63;1.60;;;31.10;28.20;;;;;;20564;6821;297515;-74
2023/07/13 08:34:20;;;;;;;1.60;1.50;;;31.40;27.10;;;;;;20574;6821;309921;-75
2023/07/13 08:36:48;;;;;;;2.07;1.20;;;31.70;27.20;;;;;;20768;6821;119759;-75
2023/07/13 08:39:14;;;;;;;3.87;1.65;;;31.60;27.80;;;;;;20575;6821;279569;-75
2023/07/13 08:41:41;;;;;;;1.30;1.20;;;31.70;26.70;;;;;;20771;6821;119355;-75
2023/07/13 08:44:06;;;;;;;3.50;1.30;;;31.60;27.40;;;;;;20789;6819;117941;-74
2023/07/13 08:46:35;;;;;;;2.57;1.57;;;31.50;27.80;;;;;;20515;6820;278686;-75
2023/07/13 08:49:09;;;;;;;1.97;1.40;;;31.60;27.20;;;;;;20790;6820;121147;-75
2023/07/13 08:51:36;;;;;;;4.23;1.50;;;31.70;27.80;;;;;;20747;6820;117483;-74
2023/07/13 08:54:12;;;;;;;1.40;1.20;;;31.60;28.90;;;;;;20770;6821;118362;-74
2023/07/13 08:56:38;;;;;;;2.00;1.50;;;31.60;28.40;;;;;;20764;6821;121157;-74
2023/07/13 08:59:13;;;;;;;3.70;1.37;;;31.60;28.40;;;;;;20580;6821;307642;-71
2023/07/13 09:02:16;;;;;;;1.53;1.17;;;31.80;27.10;;;;;;20567;6821;287181;-74
2023/07/13 09:04:44;;;;;;;2.77;1.53;;;32.30;26.20;;;;;;20564;6821;279169;-75
2023/07/13 09:07:23;;;;;;;3.28;1.52;;;32.50;25.50;;;;;;20237;6821;301549;-75
2023/07/13 09:09:58;;;;;;;2.67;1.30;;;32.70;26.30;;;;;;20774;6821;117045;-75
2023/07/13 09:12:34;;;;;;;1.57;1.40;;;32.60;26.70;;;;;;20551;6821;117411;-74
2023/07/13 09:15:00;;;;;;;1.60;1.50;;;32.40;27.10;;;;;;20761;6821;117347;-75
2023/07/13 09:17:35;;;;;;;3.17;1.40;;;32.30;27.30;;;;;;20466;6853;308634;-74
2023/07/13 09:20:11;;;;;;;2.60;1.53;;;32.50;26.40;;;;;;20784;6821;117216;-74
2023/07/13 09:22:37;;;;;;;2.00;1.30;;;32.60;26.80;;;;;;20534;6821;312241;-75
2023/07/13 09:25:06;;;;;;;1.23;1.20;;;32.80;26.40;;;;;;20788;6821;117568;-74
2023/07/13 09:27:31;;;;;;;4.50;1.57;;;32.90;26.20;;;;;;20734;6821;117768;-74
2023/07/13 09:29:57;;;;;;;3.33;1.57;;;32.70;26.50;;;;;;20566;6821;293066;-75
2023/07/13 09:32:23;;;;;;;2.60;1.23;;;32.80;26.10;;;;;;20768;6821;117701;-74
2023/07/13 09:34:52;;;;;;;3.67;1.30;;;32.80;26.00;;;;;;20758;6821;120866;-75
2023/07/13 09:37:17;;;;;;;1.80;1.57;;;32.60;26.30;;;;;;20569;6821;278519;-75
2023/07/13 09:39:43;;;;;;;2.53;1.42;;;32.80;25.80;;;;;;20572;6821;337498;-72
2023/07/13 09:42:12;;;;;;;2.70;1.40;;;33.20;24.50;;;;;;20579;6821;284090;-73
2023/07/13 09:44:38;;;;;;;1.73;1.47;;;33.20;25.50;;;;;;20519;6821;307429;-73
2023/07/13 09:47:03;;;;;;;2.47;1.40;;;33.40;24.90;;;;;;20513;6821;337016;-81
2023/07/13 09:49:29;;;;;;;2.07;1.30;;;33.50;24.60;;;;;;20738;6821;117272;-75
2023/07/13 09:52:04;;;;;;;1.53;1.07;;;33.20;24.60;;;;;;20775;6821;117525;-74
2023/07/13 09:54:29;;;;;;;3.67;1.50;;;32.80;25.10;;;;;;20557;6819;311458;-73
2023/07/13 09:56:56;;;;;;;2.75;1.45;;;32.80;24.40;;;;;;20548;6820;338657;-74
2023/07/13 09:59:21;;;;;;;2.57;1.47;;;33.10;24.30;;;;;;20566;6820;336674;-73
2023/07/13 10:01:48;;;;;;;2.00;1.33;;;33.60;23.70;;;;;;20574;6820;280086;-73
2023/07/13 10:04:13;;;;;;;1.33;1.27;;;33.60;23.70;;;;;;20793;6820;122928;-72
2023/07/13 10:06:40;;;;;;;1.83;1.10;;;33.30;24.30;;;;;;20766;6821;117128;-73
2023/07/13 10:09:04;;;;;;;2.47;1.20;;;33.30;24.30;;;;;;20523;6821;307952;-72
2023/07/13 10:11:33;;;;;;;1.57;1.47;;;33.40;24.00;;;;;;20677;6853;117211;-72
2023/07/13 10:13:56;;;;;;;0.97;0.97;;;33.40;24.00;;;;;;20698;6842;117168;-72
2023/07/13 10:16:22;;;;;;;2.97;1.30;;;33.00;24.00;;;;;;20570;6821;307647;-75
2023/07/13 10:19:11;;;;;;;2.25;1.40;;;33.00;23.60;;;;;;20778;6821;118037;-74
2023/07/13 10:21:39;;;;;;;2.17;1.40;;;32.70;24.00;;;;;;20416;6821;308220;-74
2023/07/13 10:24:14;;;;;;;3.12;1.25;;;32.80;24.20;;;;;;20533;6821;343636;-72
2023/07/13 10:26:40;;;;;;;2.67;1.17;;;33.00;23.10;;;;;;20716;6821;121645;-73
2023/07/13 10:29:07;;;;;;;1.23;1.10;;;32.90;23.60;;;;;;20664;6853;117469;-74
2023/07/13 10:31:32;;;;;;;2.23;1.33;;;32.80;23.40;;;;;;20493;6842;279701;-73
2023/07/13 10:33:58;;;;;;;3.55;1.27;;;32.80;23.40;;;;;;20576;6821;278313;-73
2023/07/13 10:36:24;;;;;;;1.85;1.30;;;33.00;22.90;;;;;;20604;6821;278451;-75
2023/07/13 10:38:50;;;;;;;2.47;1.30;;;33.30;23.90;;;;;;20515;6821;309787;-75
2023/07/13 10:41:15;;;;;;;4.40;1.27;;;33.60;24.20;;;;;;20785;6821;117587;-72
2023/07/13 10:43:41;;;;;;;3.33;1.42;;;33.40;24.00;;;;;;20568;6821;308809;-73
2023/07/13 10:46:07;;;;;;;6.13;1.57;;;33.40;24.40;;;;;;20786;6821;117487;-73
2023/07/13 10:48:34;;;;;;;2.47;1.48;;;33.30;24.10;;;;;;20558;6821;307926;-74
2023/07/13 10:51:01;;;;;;;1.50;1.40;;;33.40;23.00;;;;;;20787;6821;121567;-74
2023/07/13 10:53:33;;;;;;;5.72;1.30;;;33.50;23.50;;;;;;20775;6821;118740;-72
2023/07/13 10:56:05;;;;;;;1.20;1.10;;;33.00;23.50;;;;;;20782;6821;118236;-72
2023/07/13 10:58:34;;;;;;;1.57;0.90;;;33.00;23.50;;;;;;20773;6821;118133;-73
2023/07/13 11:01:13;;;;;;;1.43;1.10;;;32.80;23.90;;;;;;20787;6821;117321;-73
2023/07/13 11:03:58;;;;;;;1.40;1.30;;;32.50;24.10;;;;;;20442;6853;313366;-75
2023/07/13 11:06:28;;;;;;;2.47;1.23;;;32.80;23.80;;;;;;20771;6819;120257;-72
2023/07/13 11:08:52;;;;;;;2.03;1.80;;;32.90;23.80;;;;;;20568;6820;279482;-73
2023/07/13 11:11:25;;;;;;;2.43;2.00;;;33.10;23.10;;;;;;20581;6820;308132;-72
2023/07/13 11:13:50;;;;;;;4.33;1.40;;;33.50;23.50;;;;;;20798;6820;118506;-72
2023/07/13 11:16:19;;;;;;;2.60;2.40;;;33.60;23.50;;;;;;20585;6820;310566;-70
2023/07/13 11:18:45;;;;;;;2.85;2.20;;;33.70;23.60;;;;;;20553;6821;310308;-74
2023/07/13 11:21:28;;;;;;;3.03;2.03;;;33.90;22.80;;;;;;20449;6854;313059;-72
2023/07/13 11:24:04;;;;;;;1.97;1.27;;;33.50;23.80;;;;;;20785;6821;118311;-78
2023/07/13 11:26:47;;;;;;;2.20;1.13;;;33.50;23.20;;;;;;20598;6853;117246;-72
2023/07/13 11:29:26;;;;;;;2.53;1.50;;;33.00;23.80;;;;;;20791;6821;118263;-74
2023/07/13 11:31:52;;;;;;;1.73;1.10;;;32.70;24.40;;;;;;20773;6821;122073;-71
2023/07/13 11:34:17;;;;;;;2.20;1.20;;;32.60;24.70;;;;;;20760;6821;118444;-71
2023/07/13 11:36:43;;;;;;;2.53;1.48;;;32.40;24.70;;;;;;20525;6821;297893;-71
2023/07/13 11:39:31;;;;;;;1.60;1.30;;;32.70;24.20;;;;;;20573;6821;297408;-71
2023/07/13 11:41:57;;;;;;;2.40;1.27;;;33.00;23.50;;;;;;20579;6821;337564;-72
2023/07/13 11:44:26;;;;;;;2.00;1.40;;;33.40;23.70;;;;;;20571;6821;278517;-71
2023/07/13 11:50:28;;;;;;;1.80;1.10;;;33.10;24.10;;;;;;20943;6719;116992;-71
2023/07/13 11:53:03;;;;;;;2.10;1.30;;;33.10;24.10;;;;;;20725;6719;334232;-71
2023/07/13 11:55:44;;;;;;;2.20;1.30;;;33.20;23.50;;;;;;20753;6704;305105;-71
2023/07/13 11:58:14;;;;;;;2.12;1.30;;;33.60;23.50;;;;;;20634;6704;310106;-71
2023/07/13 12:00:50;;;;;;;2.87;1.40;;;33.80;22.80;;;;;;20708;6721;306704;-71
2023/07/13 12:03:28;;;;;;;2.57;1.50;;;33.90;23.10;;;;;;20920;6719;119133;-71
2023/07/13 12:06:05;;;;;;;1.75;1.45;;;33.80;23.00;;;;;;20718;6719;330554;-71
2023/07/13 12:08:38;;;;;;;2.30;1.20;;;33.70;22.90;;;;;;20810;6718;117498;-72
2023/07/13 12:11:13;;;;;;;2.47;1.40;;;33.40;23.40;;;;;;20791;6688;275300;-71
2023/07/13 12:13:48;;;;;;;1.93;1.37;;;33.30;23.60;;;;;;20801;6688;276610;-71
2023/07/13 12:16:25;;;;;;;2.00;1.30;;;33.20;23.20;;;;;;20788;6688;275868;-71
2023/07/13 12:19:00;;;;;;;2.00;1.30;;;33.20;23.20;;;;;;20805;6688;119051;-71
2023/07/13 12:21:39;;;;;;;2.03;1.23;;;32.80;23.50;;;;;;20822;6688;276754;-73
2023/07/13 12:24:16;;;;;;;1.40;1.30;;;32.70;23.30;;;;;;20807;6688;310902;-73
2023/07/13 12:26:55;;;;;;;2.95;1.50;;;32.80;22.90;;;;;;20788;6688;305392;-73
2023/07/13 12:29:33;;;;;;;3.28;1.62;;;32.90;22.90;;;;;;20806;6688;304522;-71
2023/07/13 12:32:09;;;;;;;2.27;1.23;;;33.00;23.30;;;;;;21032;6688;116696;-73
2023/07/13 12:34:55;;;;;;;1.57;1.40;;;32.70;23.60;;;;;;21025;6688;117263;-74
2023/07/13 12:37:30;;;;;;;1.00;1.00;;;32.50;23.50;;;;;;20939;6688;116720;-73
2023/07/13 12:40:09;;;;;;;2.47;1.30;;;32.30;23.20;;;;;;21020;6688;118895;-75